sensor_id;sensor_type;location;lat;lon;timestamp;P1;durP1;ratioP1;P2;durP2;ratioP2
29916;SDS011;16786;49.466;11.068;2023-02-15T00:02:00;31.83;;;16.20;;
29916;SDS011;16786;49.466;11.068;2023-02-15T00:04:28;26.33;;;14.73;;
29916;SDS011;16786;49.466;11.068;2023-02-15T00:07:13;29.25;;;15.55;;
29916;SDS011;16786;49.466;11.068;2023-02-15T00:09:42;30.35;;;16.58;;
29916;SDS011;16786;49.466;11.068;2023-02-15T00:12:11;30.35;;;15.68;;
29916;SDS011;16786;49.466;11.068;2023-02-15T00:14:38;29.92;;;16.40;;
29916;SDS011;16786;49.466;11.068;2023-02-15T00:17:05;29.83;;;15.00;;
29916;SDS011;16786;49.466;11.068;2023-02-15T00:19:33;30.80;;;16.33;;
29916;SDS011;16786;49.466;11.068;2023-02-15T00:22:00;28.98;;;14.70;;
29916;SDS011;16786;49.466;11.068;2023-02-15T00:24:27;28.88;;;15.45;;
29916;SDS011;16786;49.466;11.068;2023-02-15T00:26:55;27.27;;;14.73;;
29916;SDS011;16786;49.466;11.068;2023-02-15T00:29:22;27.35;;;13.88;;
29916;SDS011;16786;49.466;11.068;2023-02-15T00:31:49;29.30;;;15.23;;
29916;SDS011;16786;49.466;11.068;2023-02-15T00:34:19;27.75;;;14.80;;
29916;SDS011;16786;49.466;11.068;2023-02-15T00:36:48;28.67;;;15.67;;
29916;SDS011;16786;49.466;11.068;2023-02-15T00:39:17;28.42;;;15.10;;
29916;SDS011;16786;49.466;11.068;2023-02-15T00:41:45;28.02;;;14.90;;
29916;SDS011;16786;49.466;11.068;2023-02-15T00:44:13;27.02;;;14.13;;
29916;SDS011;16786;49.466;11.068;2023-02-15T00:46:40;29.27;;;15.00;;
29916;SDS011;16786;49.466;11.068;2023-02-15T00:49:08;27.40;;;14.00;;
29916;SDS011;16786;49.466;11.068;2023-02-15T00:51:36;26.10;;;14.55;;
29916;SDS011;16786;49.466;11.068;2023-02-15T00:54:04;26.48;;;14.45;;
29916;SDS011;16786;49.466;11.068;2023-02-15T00:56:32;24.50;;;13.73;;
29916;SDS011;16786;49.466;11.068;2023-02-15T00:58:59;26.52;;;13.93;;
29916;SDS011;16786;49.466;11.068;2023-02-15T01:01:26;26.15;;;14.05;;
29916;SDS011;16786;49.466;11.068;2023-02-15T01:03:53;26.75;;;14.02;;
29916;SDS011;16786;49.466;11.068;2023-02-15T01:06:21;24.00;;;12.80;;
29916;SDS011;16786;49.466;11.068;2023-02-15T01:08:48;25.50;;;13.80;;
29916;SDS011;16786;49.466;11.068;2023-02-15T01:11:17;26.58;;;14.02;;
29916;SDS011;16786;49.466;11.068;2023-02-15T01:13:50;26.60;;;13.00;;
29916;SDS011;16786;49.466;11.068;2023-02-15T01:16:20;24.77;;;13.90;;
29916;SDS011;16786;49.466;11.068;2023-02-15T01:18:47;25.63;;;13.20;;
29916;SDS011;16786;49.466;11.068;2023-02-15T01:21:16;24.42;;;12.90;;
29916;SDS011;16786;49.466;11.068;2023-02-15T01:23:45;26.08;;;14.10;;
29916;SDS011;16786;49.466;11.068;2023-02-15T01:26:13;25.90;;;13.55;;
29916;SDS011;16786;49.466;11.068;2023-02-15T01:28:42;26.90;;;13.48;;
29916;SDS011;16786;49.466;11.068;2023-02-15T01:31:11;27.45;;;14.23;;
29916;SDS011;16786;49.466;11.068;2023-02-15T01:33:41;30.20;;;15.02;;
29916;SDS011;16786;49.466;11.068;2023-02-15T01:36:08;26.45;;;13.02;;
29916;SDS011;16786;49.466;11.068;2023-02-15T01:38:37;26.20;;;14.07;;
29916;SDS011;16786;49.466;11.068;2023-02-15T01:41:06;25.45;;;13.75;;
29916;SDS011;16786;49.466;11.068;2023-02-15T01:43:57;25.55;;;13.45;;
29916;SDS011;16786;49.466;11.068;2023-02-15T01:46:40;30.65;;;15.02;;
29916;SDS011;16786;49.466;11.068;2023-02-15T01:49:17;30.08;;;13.88;;
29916;SDS011;16786;49.466;11.068;2023-02-15T01:51:50;29.10;;;15.18;;
29916;SDS011;16786;49.466;11.068;2023-02-15T01:54:23;28.40;;;14.45;;
29916;SDS011;16786;49.466;11.068;2023-02-15T01:56:56;29.90;;;14.55;;
29916;SDS011;16786;49.466;11.068;2023-02-15T01:59:29;28.27;;;14.40;;
29916;SDS011;16786;49.466;11.068;2023-02-15T02:01:59;29.35;;;14.65;;
29916;SDS011;16786;49.466;11.068;2023-02-15T02:04:35;27.42;;;14.05;;
29916;SDS011;16786;49.466;11.068;2023-02-15T02:07:12;29.85;;;14.10;;
29916;SDS011;16786;49.466;11.068;2023-02-15T02:09:42;26.40;;;14.20;;
29916;SDS011;16786;49.466;11.068;2023-02-15T02:12:11;29.02;;;15.00;;
29916;SDS011;16786;49.466;11.068;2023-02-15T02:14:39;28.15;;;14.98;;
29916;SDS011;16786;49.466;11.068;2023-02-15T02:19:53;28.75;;;14.55;;
29916;SDS011;16786;49.466;11.068;2023-02-15T02:39:23;29.00;;;14.55;;
29916;SDS011;16786;49.466;11.068;2023-02-15T02:42:35;30.40;;;15.23;;
29916;SDS011;16786;49.466;11.068;2023-02-15T02:44:58;30.60;;;15.05;;
29916;SDS011;16786;49.466;11.068;2023-02-15T02:47:36;29.88;;;14.05;;
29916;SDS011;16786;49.466;11.068;2023-02-15T02:50:15;30.38;;;14.65;;
29916;SDS011;16786;49.466;11.068;2023-02-15T02:52:46;29.40;;;15.25;;
29916;SDS011;16786;49.466;11.068;2023-02-15T03:00:32;30.05;;;14.88;;
29916;SDS011;16786;49.466;11.068;2023-02-15T03:03:07;31.20;;;15.82;;
29916;SDS011;16786;49.466;11.068;2023-02-15T03:05:39;29.25;;;14.77;;
29916;SDS011;16786;49.466;11.068;2023-02-15T03:08:12;32.00;;;15.68;;
29916;SDS011;16786;49.466;11.068;2023-02-15T03:10:48;28.10;;;14.52;;
29916;SDS011;16786;49.466;11.068;2023-02-15T03:13:19;29.38;;;14.40;;
29916;SDS011;16786;49.466;11.068;2023-02-15T03:15:48;27.55;;;14.10;;
29916;SDS011;16786;49.466;11.068;2023-02-15T03:18:39;28.80;;;13.85;;
29916;SDS011;16786;49.466;11.068;2023-02-15T03:21:10;27.10;;;13.73;;
29916;SDS011;16786;49.466;11.068;2023-02-15T03:23:57;28.10;;;14.18;;
29916;SDS011;16786;49.466;11.068;2023-02-15T03:26:48;27.30;;;13.55;;
29916;SDS011;16786;49.466;11.068;2023-02-15T03:29:19;28.88;;;14.10;;
29916;SDS011;16786;49.466;11.068;2023-02-15T03:31:51;27.95;;;14.07;;
29916;SDS011;16786;49.466;11.068;2023-02-15T03:34:23;28.60;;;14.88;;
29916;SDS011;16786;49.466;11.068;2023-02-15T03:37:04;29.33;;;13.73;;
29916;SDS011;16786;49.466;11.068;2023-02-15T03:39:53;28.65;;;14.45;;
29916;SDS011;16786;49.466;11.068;2023-02-15T03:42:44;28.23;;;13.88;;
29916;SDS011;16786;49.466;11.068;2023-02-15T03:45:15;31.98;;;15.88;;
29916;SDS011;16786;49.466;11.068;2023-02-15T03:47:47;28.63;;;14.75;;
29916;SDS011;16786;49.466;11.068;2023-02-15T03:50:18;26.15;;;13.68;;
29916;SDS011;16786;49.466;11.068;2023-02-15T03:53:14;28.80;;;14.00;;
29916;SDS011;16786;49.466;11.068;2023-02-15T03:55:48;27.42;;;13.43;;
29916;SDS011;16786;49.466;11.068;2023-02-15T03:58:19;27.00;;;13.10;;
29916;SDS011;16786;49.466;11.068;2023-02-15T04:01:10;26.98;;;13.35;;
29916;SDS011;16786;49.466;11.068;2023-02-15T04:04:08;29.13;;;13.60;;
29916;SDS011;16786;49.466;11.068;2023-02-15T04:06:50;26.00;;;12.52;;
29916;SDS011;16786;49.466;11.068;2023-02-15T04:09:18;25.50;;;12.98;;
29916;SDS011;16786;49.466;11.068;2023-02-15T04:12:04;27.73;;;13.27;;
29916;SDS011;16786;49.466;11.068;2023-02-15T04:14:31;25.15;;;12.00;;
29916;SDS011;16786;49.466;11.068;2023-02-15T04:17:17;22.30;;;12.02;;
29916;SDS011;16786;49.466;11.068;2023-02-15T04:19:44;21.30;;;12.35;;
29916;SDS011;16786;49.466;11.068;2023-02-15T04:22:30;23.77;;;12.13;;
29916;SDS011;16786;49.466;11.068;2023-02-15T04:25:16;24.20;;;12.02;;
29916;SDS011;16786;49.466;11.068;2023-02-15T04:27:52;20.85;;;11.15;;
29916;SDS011;16786;49.466;11.068;2023-02-15T04:30:22;23.58;;;12.48;;
29916;SDS011;16786;49.466;11.068;2023-02-15T04:32:51;21.65;;;11.43;;
29916;SDS011;16786;49.466;11.068;2023-02-15T04:35:18;22.50;;;12.60;;
29916;SDS011;16786;49.466;11.068;2023-02-15T04:37:45;22.20;;;12.32;;
29916;SDS011;16786;49.466;11.068;2023-02-15T04:40:13;20.70;;;11.40;;
29916;SDS011;16786;49.466;11.068;2023-02-15T04:42:46;20.00;;;10.50;;
29916;SDS011;16786;49.466;11.068;2023-02-15T04:45:15;14.65;;;8.98;;
29916;SDS011;16786;49.466;11.068;2023-02-15T04:47:43;20.95;;;11.35;;
29916;SDS011;16786;49.466;11.068;2023-02-15T04:50:11;24.48;;;12.50;;
29916;SDS011;16786;49.466;11.068;2023-02-15T04:52:38;19.30;;;11.23;;
29916;SDS011;16786;49.466;11.068;2023-02-15T04:55:06;22.25;;;11.73;;
29916;SDS011;16786;49.466;11.068;2023-02-15T04:57:33;20.40;;;11.10;;
29916;SDS011;16786;49.466;11.068;2023-02-15T05:00:01;21.13;;;11.13;;
29916;SDS011;16786;49.466;11.068;2023-02-15T05:02:29;21.70;;;11.77;;
29916;SDS011;16786;49.466;11.068;2023-02-15T05:04:57;23.75;;;12.40;;
29916;SDS011;16786;49.466;11.068;2023-02-15T05:07:24;20.63;;;11.63;;
29916;SDS011;16786;49.466;11.068;2023-02-15T05:09:51;22.73;;;11.88;;
29916;SDS011;16786;49.466;11.068;2023-02-15T05:12:18;21.90;;;12.10;;
29916;SDS011;16786;49.466;11.068;2023-02-15T05:14:46;22.88;;;12.23;;
29916;SDS011;16786;49.466;11.068;2023-02-15T05:17:13;23.35;;;12.93;;
29916;SDS011;16786;49.466;11.068;2023-02-15T05:19:40;22.17;;;12.50;;
29916;SDS011;16786;49.466;11.068;2023-02-15T05:22:07;25.00;;;13.40;;
29916;SDS011;16786;49.466;11.068;2023-02-15T05:24:34;26.13;;;13.38;;
29916;SDS011;16786;49.466;11.068;2023-02-15T05:27:20;24.80;;;12.85;;
29916;SDS011;16786;49.466;11.068;2023-02-15T05:30:06;24.60;;;13.75;;
29916;SDS011;16786;49.466;11.068;2023-02-15T05:32:38;26.92;;;13.25;;
29916;SDS011;16786;49.466;11.068;2023-02-15T05:35:06;26.02;;;13.82;;
29916;SDS011;16786;49.466;11.068;2023-02-15T05:37:34;27.85;;;14.15;;
29916;SDS011;16786;49.466;11.068;2023-02-15T05:40:01;26.92;;;14.18;;
29916;SDS011;16786;49.466;11.068;2023-02-15T05:42:29;26.95;;;14.25;;
29916;SDS011;16786;49.466;11.068;2023-02-15T05:44:56;29.35;;;15.13;;
29916;SDS011;16786;49.466;11.068;2023-02-15T05:47:23;27.80;;;14.88;;
29916;SDS011;16786;49.466;11.068;2023-02-15T05:49:50;31.27;;;16.40;;
29916;SDS011;16786;49.466;11.068;2023-02-15T05:52:18;30.15;;;15.07;;
29916;SDS011;16786;49.466;11.068;2023-02-15T05:54:45;27.85;;;15.30;;
29916;SDS011;16786;49.466;11.068;2023-02-15T05:57:12;29.63;;;15.88;;
29916;SDS011;16786;49.466;11.068;2023-02-15T05:59:39;30.30;;;15.63;;
29916;SDS011;16786;49.466;11.068;2023-02-15T06:02:07;30.45;;;17.30;;
29916;SDS011;16786;49.466;11.068;2023-02-15T06:04:34;32.53;;;16.42;;
29916;SDS011;16786;49.466;11.068;2023-02-15T06:07:01;27.73;;;14.98;;
29916;SDS011;16786;49.466;11.068;2023-02-15T06:09:29;29.52;;;14.68;;
29916;SDS011;16786;49.466;11.068;2023-02-15T06:11:56;31.23;;;14.32;;
29916;SDS011;16786;49.466;11.068;2023-02-15T06:14:23;28.73;;;14.50;;
29916;SDS011;16786;49.466;11.068;2023-02-15T06:16:50;29.90;;;15.48;;
29916;SDS011;16786;49.466;11.068;2023-02-15T06:19:18;32.90;;;16.40;;
29916;SDS011;16786;49.466;11.068;2023-02-15T06:21:45;30.80;;;16.63;;
29916;SDS011;16786;49.466;11.068;2023-02-15T06:24:12;30.00;;;14.85;;
29916;SDS011;16786;49.466;11.068;2023-02-15T06:26:40;27.73;;;15.07;;
29916;SDS011;16786;49.466;11.068;2023-02-15T06:29:07;30.45;;;15.30;;
29916;SDS011;16786;49.466;11.068;2023-02-15T06:31:34;29.40;;;15.70;;
29916;SDS011;16786;49.466;11.068;2023-02-15T06:34:02;30.95;;;15.55;;
29916;SDS011;16786;49.466;11.068;2023-02-15T06:36:29;28.55;;;15.52;;
29916;SDS011;16786;49.466;11.068;2023-02-15T06:38:58;31.67;;;16.02;;
29916;SDS011;16786;49.466;11.068;2023-02-15T06:41:25;30.40;;;15.80;;
29916;SDS011;16786;49.466;11.068;2023-02-15T06:43:53;27.35;;;15.63;;
29916;SDS011;16786;49.466;11.068;2023-02-15T06:46:20;28.67;;;14.93;;
29916;SDS011;16786;49.466;11.068;2023-02-15T06:48:47;29.58;;;15.45;;
29916;SDS011;16786;49.466;11.068;2023-02-15T06:51:14;32.53;;;16.52;;
29916;SDS011;16786;49.466;11.068;2023-02-15T06:53:42;28.27;;;14.40;;
29916;SDS011;16786;49.466;11.068;2023-02-15T06:56:10;27.33;;;15.23;;
29916;SDS011;16786;49.466;11.068;2023-02-15T06:58:41;29.05;;;15.75;;
29916;SDS011;16786;49.466;11.068;2023-02-15T07:01:09;29.05;;;14.73;;
29916;SDS011;16786;49.466;11.068;2023-02-15T07:03:36;26.75;;;13.50;;
29916;SDS011;16786;49.466;11.068;2023-02-15T07:06:04;27.15;;;14.32;;
29916;SDS011;16786;49.466;11.068;2023-02-15T07:08:35;27.92;;;15.77;;
29916;SDS011;16786;49.466;11.068;2023-02-15T07:11:03;28.83;;;15.90;;
29916;SDS011;16786;49.466;11.068;2023-02-15T07:13:49;27.83;;;14.50;;
29916;SDS011;16786;49.466;11.068;2023-02-15T07:16:19;27.35;;;15.35;;
29916;SDS011;16786;49.466;11.068;2023-02-15T07:18:46;27.73;;;14.57;;
29916;SDS011;16786;49.466;11.068;2023-02-15T07:21:13;27.58;;;14.10;;
29916;SDS011;16786;49.466;11.068;2023-02-15T07:23:41;25.35;;;13.05;;
29916;SDS011;16786;49.466;11.068;2023-02-15T07:26:08;25.70;;;14.10;;
29916;SDS011;16786;49.466;11.068;2023-02-15T07:28:35;23.23;;;13.13;;
29916;SDS011;16786;49.466;11.068;2023-02-15T07:31:03;27.38;;;13.00;;
29916;SDS011;16786;49.466;11.068;2023-02-15T07:33:31;26.95;;;13.98;;
29916;SDS011;16786;49.466;11.068;2023-02-15T07:36:00;30.23;;;15.80;;
29916;SDS011;16786;49.466;11.068;2023-02-15T07:38:30;27.58;;;14.43;;
29916;SDS011;16786;49.466;11.068;2023-02-15T07:41:03;26.70;;;14.32;;
29916;SDS011;16786;49.466;11.068;2023-02-15T07:43:35;31.73;;;14.93;;
29916;SDS011;16786;49.466;11.068;2023-02-15T07:46:06;26.92;;;13.57;;
29916;SDS011;16786;49.466;11.068;2023-02-15T07:48:39;26.75;;;13.80;;
29916;SDS011;16786;49.466;11.068;2023-02-15T07:51:09;27.77;;;14.02;;
29916;SDS011;16786;49.466;11.068;2023-02-15T07:53:38;26.83;;;14.50;;
29916;SDS011;16786;49.466;11.068;2023-02-15T07:56:09;25.83;;;13.88;;
29916;SDS011;16786;49.466;11.068;2023-02-15T07:58:38;26.48;;;14.15;;
29916;SDS011;16786;49.466;11.068;2023-02-15T08:03:46;30.35;;;14.10;;
29916;SDS011;16786;49.466;11.068;2023-02-15T08:06:14;26.45;;;14.35;;
29916;SDS011;16786;49.466;11.068;2023-02-15T08:08:41;27.42;;;13.65;;
29916;SDS011;16786;49.466;11.068;2023-02-15T08:13:53;27.23;;;13.43;;
29916;SDS011;16786;49.466;11.068;2023-02-15T08:16:22;26.83;;;13.70;;
29916;SDS011;16786;49.466;11.068;2023-02-15T08:18:54;25.05;;;13.35;;
29916;SDS011;16786;49.466;11.068;2023-02-15T08:21:23;31.60;;;15.60;;
29916;SDS011;16786;49.466;11.068;2023-02-15T08:23:52;27.13;;;14.10;;
29916;SDS011;16786;49.466;11.068;2023-02-15T08:26:20;31.05;;;15.18;;
29916;SDS011;16786;49.466;11.068;2023-02-15T08:28:48;35.88;;;16.65;;
29916;SDS011;16786;49.466;11.068;2023-02-15T08:31:17;24.92;;;12.98;;
29916;SDS011;16786;49.466;11.068;2023-02-15T08:33:45;26.33;;;14.13;;
29916;SDS011;16786;49.466;11.068;2023-02-15T08:36:16;30.73;;;15.07;;
29916;SDS011;16786;49.466;11.068;2023-02-15T08:38:45;29.48;;;15.35;;
29916;SDS011;16786;49.466;11.068;2023-02-15T08:41:14;26.77;;;13.27;;
29916;SDS011;16786;49.466;11.068;2023-02-15T08:43:43;24.83;;;13.00;;
29916;SDS011;16786;49.466;11.068;2023-02-15T08:46:15;27.95;;;14.50;;
29916;SDS011;16786;49.466;11.068;2023-02-15T08:48:43;28.60;;;14.80;;
29916;SDS011;16786;49.466;11.068;2023-02-15T08:51:12;26.42;;;13.63;;
29916;SDS011;16786;49.466;11.068;2023-02-15T08:53:43;25.92;;;13.35;;
29916;SDS011;16786;49.466;11.068;2023-02-15T08:56:12;33.80;;;15.82;;
29916;SDS011;16786;49.466;11.068;2023-02-15T08:58:39;28.23;;;14.63;;
29916;SDS011;16786;49.466;11.068;2023-02-15T09:03:38;29.73;;;14.32;;
29916;SDS011;16786;49.466;11.068;2023-02-15T09:06:06;29.15;;;15.18;;
29916;SDS011;16786;49.466;11.068;2023-02-15T09:08:34;33.72;;;16.20;;
29916;SDS011;16786;49.466;11.068;2023-02-15T09:11:06;29.27;;;14.93;;
29916;SDS011;16786;49.466;11.068;2023-02-15T09:13:33;31.92;;;16.15;;
29916;SDS011;16786;49.466;11.068;2023-02-15T09:16:04;25.17;;;14.15;;
29916;SDS011;16786;49.466;11.068;2023-02-15T09:18:34;27.65;;;13.80;;
29916;SDS011;16786;49.466;11.068;2023-02-15T09:21:13;23.48;;;12.70;;
29916;SDS011;16786;49.466;11.068;2023-02-15T09:23:43;27.00;;;13.07;;
29916;SDS011;16786;49.466;11.068;2023-02-15T09:26:16;23.20;;;12.82;;
29916;SDS011;16786;49.466;11.068;2023-02-15T09:28:51;23.15;;;12.35;;
29916;SDS011;16786;49.466;11.068;2023-02-15T09:31:21;21.70;;;12.27;;
29916;SDS011;16786;49.466;11.068;2023-02-15T09:33:49;25.17;;;13.05;;
29916;SDS011;16786;49.466;11.068;2023-02-15T09:36:19;25.30;;;12.60;;
29916;SDS011;16786;49.466;11.068;2023-02-15T09:38:47;24.30;;;13.07;;
29916;SDS011;16786;49.466;11.068;2023-02-15T09:41:29;27.10;;;12.77;;
29916;SDS011;16786;49.466;11.068;2023-02-15T10:12:18;24.63;;;11.60;;
29916;SDS011;16786;49.466;11.068;2023-02-15T10:14:44;20.90;;;12.00;;
29916;SDS011;16786;49.466;11.068;2023-02-15T10:33:59;23.15;;;11.50;;
29916;SDS011;16786;49.466;11.068;2023-02-15T10:36:39;26.75;;;12.90;;
29916;SDS011;16786;49.466;11.068;2023-02-15T10:42:11;24.90;;;11.85;;
29916;SDS011;16786;49.466;11.068;2023-02-15T10:45:06;21.77;;;11.88;;
29916;SDS011;16786;49.466;11.068;2023-02-15T10:55:51;22.20;;;12.32;;
29916;SDS011;16786;49.466;11.068;2023-02-15T10:58:37;22.65;;;11.85;;
29916;SDS011;16786;49.466;11.068;2023-02-15T11:06:44;18.73;;;12.55;;
29916;SDS011;16786;49.466;11.068;2023-02-15T11:09:18;21.58;;;12.32;;
29916;SDS011;16786;49.466;11.068;2023-02-15T11:11:49;23.47;;;12.77;;
29916;SDS011;16786;49.466;11.068;2023-02-15T11:14:38;20.73;;;11.57;;
29916;SDS011;16786;49.466;11.068;2023-02-15T11:17:22;18.23;;;11.18;;
29916;SDS011;16786;49.466;11.068;2023-02-15T11:20:17;20.02;;;12.15;;
29916;SDS011;16786;49.466;11.068;2023-02-15T11:22:48;18.70;;;11.23;;
29916;SDS011;16786;49.466;11.068;2023-02-15T11:25:22;18.00;;;11.20;;
29916;SDS011;16786;49.466;11.068;2023-02-15T11:27:52;18.35;;;11.90;;
29916;SDS011;16786;49.466;11.068;2023-02-15T11:30:23;17.10;;;11.38;;
29916;SDS011;16786;49.466;11.068;2023-02-15T11:32:55;19.88;;;12.25;;
29916;SDS011;16786;49.466;11.068;2023-02-15T11:35:32;19.60;;;11.85;;
29916;SDS011;16786;49.466;11.068;2023-02-15T11:38:16;19.35;;;11.57;;
29916;SDS011;16786;49.466;11.068;2023-02-15T11:40:54;18.60;;;11.35;;
29916;SDS011;16786;49.466;11.068;2023-02-15T11:46:10;19.55;;;11.77;;
29916;SDS011;16786;49.466;11.068;2023-02-15T11:48:39;19.42;;;12.40;;
29916;SDS011;16786;49.466;11.068;2023-02-15T11:51:17;21.60;;;12.75;;
29916;SDS011;16786;49.466;11.068;2023-02-15T11:56:21;21.17;;;12.80;;
29916;SDS011;16786;49.466;11.068;2023-02-15T11:59:01;19.95;;;13.73;;
29916;SDS011;16786;49.466;11.068;2023-02-15T12:01:43;21.67;;;14.13;;
29916;SDS011;16786;49.466;11.068;2023-02-15T12:04:20;20.42;;;13.43;;
29916;SDS011;16786;49.466;11.068;2023-02-15T12:07:19;18.30;;;12.25;;
29916;SDS011;16786;49.466;11.068;2023-02-15T12:09:57;19.50;;;12.70;;
29916;SDS011;16786;49.466;11.068;2023-02-15T12:12:43;18.08;;;12.82;;
29916;SDS011;16786;49.466;11.068;2023-02-15T12:15:11;20.65;;;14.48;;
29916;SDS011;16786;49.466;11.068;2023-02-15T12:17:41;20.15;;;14.05;;
29916;SDS011;16786;49.466;11.068;2023-02-15T12:22:54;20.70;;;14.05;;
29916;SDS011;16786;49.466;11.068;2023-02-15T12:28:04;19.40;;;13.43;;
29916;SDS011;16786;49.466;11.068;2023-02-15T12:30:47;22.67;;;14.55;;
29916;SDS011;16786;49.466;11.068;2023-02-15T12:33:17;22.58;;;14.93;;
29916;SDS011;16786;49.466;11.068;2023-02-15T12:38:39;18.15;;;13.57;;
29916;SDS011;16786;49.466;11.068;2023-02-15T12:46:32;20.33;;;14.10;;
29916;SDS011;16786;49.466;11.068;2023-02-15T12:49:16;16.53;;;12.47;;
29916;SDS011;16786;49.466;11.068;2023-02-15T12:51:48;14.88;;;12.02;;
29916;SDS011;16786;49.466;11.068;2023-02-15T12:54:25;16.65;;;13.48;;
29916;SDS011;16786;49.466;11.068;2023-02-15T12:59:56;16.35;;;13.43;;
29916;SDS011;16786;49.466;11.068;2023-02-15T13:07:49;17.25;;;14.98;;
29916;SDS011;16786;49.466;11.068;2023-02-15T13:10:23;16.52;;;14.30;;
29916;SDS011;16786;49.466;11.068;2023-02-15T13:12:52;18.60;;;14.48;;
29916;SDS011;16786;49.466;11.068;2023-02-15T13:15:24;18.40;;;15.13;;
29916;SDS011;16786;49.466;11.068;2023-02-15T13:20:21;20.90;;;15.45;;
29916;SDS011;16786;49.466;11.068;2023-02-15T13:22:50;17.15;;;14.93;;
29916;SDS011;16786;49.466;11.068;2023-02-15T13:25:28;19.30;;;15.43;;
29916;SDS011;16786;49.466;11.068;2023-02-15T13:28:00;17.45;;;15.25;;
29916;SDS011;16786;49.466;11.068;2023-02-15T13:30:31;20.00;;;15.88;;
29916;SDS011;16786;49.466;11.068;2023-02-15T13:33:02;19.25;;;15.80;;
29916;SDS011;16786;49.466;11.068;2023-02-15T13:35:58;17.95;;;14.20;;
29916;SDS011;16786;49.466;11.068;2023-02-15T13:41:49;19.40;;;16.07;;
29916;SDS011;16786;49.466;11.068;2023-02-15T13:44:51;21.20;;;17.73;;
29916;SDS011;16786;49.466;11.068;2023-02-15T13:47:42;20.83;;;17.10;;
29916;SDS011;16786;49.466;11.068;2023-02-15T13:53:38;19.67;;;17.17;;
29916;SDS011;16786;49.466;11.068;2023-02-15T14:07:23;21.42;;;18.10;;
29916;SDS011;16786;49.466;11.068;2023-02-15T14:21:09;20.05;;;17.95;;
29916;SDS011;16786;49.466;11.068;2023-02-15T14:24:18;20.30;;;17.75;;
29916;SDS011;16786;49.466;11.068;2023-02-15T14:26:56;22.15;;;17.38;;
29916;SDS011;16786;49.466;11.068;2023-02-15T14:32:42;22.25;;;19.92;;
29916;SDS011;16786;49.466;11.068;2023-02-15T14:35:13;19.45;;;17.15;;
29916;SDS011;16786;49.466;11.068;2023-02-15T14:43:41;23.95;;;20.92;;
29916;SDS011;16786;49.466;11.068;2023-02-15T14:48:46;24.45;;;20.60;;
29916;SDS011;16786;49.466;11.068;2023-02-15T15:02:12;27.17;;;21.95;;
29916;SDS011;16786;49.466;11.068;2023-02-15T15:04:45;23.48;;;19.52;;
29916;SDS011;16786;49.466;11.068;2023-02-15T15:07:28;24.02;;;20.92;;
29916;SDS011;16786;49.466;11.068;2023-02-15T15:10:06;23.63;;;20.98;;
29916;SDS011;16786;49.466;11.068;2023-02-15T15:12:44;23.00;;;20.42;;
29916;SDS011;16786;49.466;11.068;2023-02-15T15:18:03;24.05;;;21.38;;
29916;SDS011;16786;49.466;11.068;2023-02-15T15:25:51;22.10;;;19.33;;
29916;SDS011;16786;49.466;11.068;2023-02-15T15:49:19;24.35;;;20.20;;
29916;SDS011;16786;49.466;11.068;2023-02-15T15:51:48;28.05;;;22.27;;
29916;SDS011;16786;49.466;11.068;2023-02-15T15:54:19;27.52;;;22.60;;
29916;SDS011;16786;49.466;11.068;2023-02-15T15:56:49;33.67;;;22.88;;
29916;SDS011;16786;49.466;11.068;2023-02-15T15:59:32;26.40;;;20.90;;
29916;SDS011;16786;49.466;11.068;2023-02-15T16:02:04;29.52;;;22.42;;
29916;SDS011;16786;49.466;11.068;2023-02-15T16:04:33;29.58;;;23.52;;
29916;SDS011;16786;49.466;11.068;2023-02-15T16:09:59;30.63;;;22.73;;
29916;SDS011;16786;49.466;11.068;2023-02-15T16:12:35;30.00;;;23.58;;
29916;SDS011;16786;49.466;11.068;2023-02-15T16:18:14;30.13;;;22.50;;
29916;SDS011;16786;49.466;11.068;2023-02-15T16:20:54;34.25;;;22.95;;
29916;SDS011;16786;49.466;11.068;2023-02-15T16:26:02;34.45;;;23.92;;
29916;SDS011;16786;49.466;11.068;2023-02-15T16:28:40;32.70;;;23.67;;
29916;SDS011;16786;49.466;11.068;2023-02-15T16:31:17;32.75;;;23.05;;
29916;SDS011;16786;49.466;11.068;2023-02-15T16:33:47;32.70;;;22.48;;
29916;SDS011;16786;49.466;11.068;2023-02-15T16:36:23;36.67;;;24.30;;
29916;SDS011;16786;49.466;11.068;2023-02-15T16:39:06;35.30;;;23.42;;
29916;SDS011;16786;49.466;11.068;2023-02-15T16:41:38;34.50;;;24.30;;
29916;SDS011;16786;49.466;11.068;2023-02-15T16:44:13;38.33;;;24.65;;
29916;SDS011;16786;49.466;11.068;2023-02-15T16:46:51;37.53;;;23.60;;
29916;SDS011;16786;49.466;11.068;2023-02-15T16:49:21;40.60;;;24.48;;
29916;SDS011;16786;49.466;11.068;2023-02-15T16:52:10;38.85;;;23.63;;
29916;SDS011;16786;49.466;11.068;2023-02-15T16:54:58;40.53;;;23.57;;
29916;SDS011;16786;49.466;11.068;2023-02-15T16:57:33;41.63;;;23.02;;
29916;SDS011;16786;49.466;11.068;2023-02-15T17:00:04;44.50;;;24.38;;
29916;SDS011;16786;49.466;11.068;2023-02-15T17:02:36;44.60;;;24.85;;
29916;SDS011;16786;49.466;11.068;2023-02-15T17:06:00;45.45;;;25.23;;
29916;SDS011;16786;49.466;11.068;2023-02-15T17:08:31;45.63;;;24.73;;
29916;SDS011;16786;49.466;11.068;2023-02-15T17:11:03;47.70;;;25.98;;
29916;SDS011;16786;49.466;11.068;2023-02-15T17:16:52;45.78;;;24.52;;
29916;SDS011;16786;49.466;11.068;2023-02-15T17:19:31;50.90;;;27.45;;
29916;SDS011;16786;49.466;11.068;2023-02-15T17:22:21;53.28;;;26.88;;
29916;SDS011;16786;49.466;11.068;2023-02-15T17:24:57;52.10;;;27.17;;
29916;SDS011;16786;49.466;11.068;2023-02-15T17:27:30;55.40;;;28.10;;
29916;SDS011;16786;49.466;11.068;2023-02-15T17:30:04;52.45;;;26.33;;
29916;SDS011;16786;49.466;11.068;2023-02-15T17:32:56;57.67;;;27.27;;
29916;SDS011;16786;49.466;11.068;2023-02-15T17:35:29;55.50;;;27.80;;
29916;SDS011;16786;49.466;11.068;2023-02-15T17:38:00;58.65;;;28.75;;
29916;SDS011;16786;49.466;11.068;2023-02-15T17:40:47;56.00;;;26.70;;
29916;SDS011;16786;49.466;11.068;2023-02-15T17:43:14;52.88;;;26.90;;
29916;SDS011;16786;49.466;11.068;2023-02-15T17:45:48;61.92;;;27.52;;
29916;SDS011;16786;49.466;11.068;2023-02-15T17:48:21;54.03;;;27.45;;
29916;SDS011;16786;49.466;11.068;2023-02-15T17:50:58;56.33;;;27.52;;
29916;SDS011;16786;49.466;11.068;2023-02-15T17:53:28;56.88;;;27.25;;
29916;SDS011;16786;49.466;11.068;2023-02-15T17:55:56;80.43;;;42.15;;
29916;SDS011;16786;49.466;11.068;2023-02-15T17:58:23;60.22;;;32.40;;
29916;SDS011;16786;49.466;11.068;2023-02-15T18:00:51;57.85;;;28.02;;
29916;SDS011;16786;49.466;11.068;2023-02-15T18:06:29;52.70;;;26.00;;
29916;SDS011;16786;49.466;11.068;2023-02-15T18:09:15;58.63;;;27.38;;
29916;SDS011;16786;49.466;11.068;2023-02-15T18:12:25;53.88;;;25.33;;
29916;SDS011;16786;49.466;11.068;2023-02-15T18:14:53;59.20;;;27.30;;
29916;SDS011;16786;49.466;11.068;2023-02-15T18:17:29;52.85;;;26.40;;
29916;SDS011;16786;49.466;11.068;2023-02-15T18:20:00;56.92;;;27.48;;
29916;SDS011;16786;49.466;11.068;2023-02-15T18:22:33;57.38;;;26.88;;